createdAt,value
2019-05-25T00:02:09.515Z,83.93
2019-05-25T00:04:44.551Z,83.82
2019-05-25T00:07:16.902Z,83.72
2019-05-25T00:09:49.080Z,83.32
2019-05-25T00:12:20.848Z,83.59
2019-05-25T00:14:53.886Z,84.32
2019-05-25T00:17:25.477Z,84.48
2019-05-25T00:19:58.935Z,84.80
2019-05-25T00:22:31.758Z,84.87
2019-05-25T00:25:03.571Z,84.24
2019-05-25T00:27:37.314Z,84.48
2019-05-25T00:30:09.811Z,84.57
2019-05-25T00:32:41.345Z,85.12
2019-05-25T00:35:13.612Z,85.66
2019-05-25T00:37:47.217Z,85.51
2019-05-25T00:40:18.765Z,85.65
2019-05-25T00:42:50.825Z,85.49
2019-05-25T00:45:23.704Z,85.08
2019-05-25T00:47:56.906Z,84.63
2019-05-25T00:50:28.356Z,84.52
2019-05-25T00:52:59.801Z,84.39
2019-05-25T00:55:31.862Z,84.38
2019-05-25T00:58:03.224Z,84.14
2019-05-25T01:00:35.068Z,84.13
2019-05-25T01:03:06.827Z,84.26
2019-05-25T01:05:38.487Z,84.19
2019-05-25T01:08:10.193Z,84.40
2019-05-25T01:10:41.793Z,84.71
2019-05-25T01:13:13.541Z,84.63
2019-05-25T01:15:45.400Z,84.48
2019-05-25T01:18:16.953Z,84.45
2019-05-25T01:20:49.124Z,84.68
2019-05-25T01:23:20.671Z,84.73
2019-05-25T01:25:52.379Z,84.62
2019-05-25T01:28:24.388Z,84.58
2019-05-25T01:30:55.611Z,85.08
2019-05-25T01:33:27.505Z,84.84
2019-05-25T01:36:00.069Z,84.47
2019-05-25T01:38:31.763Z,84.19
2019-05-25T01:41:05.411Z,84.05
2019-05-25T01:43:39.852Z,84.03
2019-05-25T01:46:11.395Z,84.14
2019-05-25T01:48:43.870Z,84.30
2019-05-25T01:51:15.619Z,84.46
2019-05-25T01:53:47.281Z,84.52
2019-05-25T01:56:20.902Z,84.34
2019-05-25T01:58:53.690Z,84.52
2019-05-25T02:01:25.327Z,84.35
2019-05-25T02:03:57.589Z,84.59
2019-05-25T02:06:29.750Z,85.53
2019-05-25T02:09:01.712Z,84.78
2019-05-25T02:11:34.487Z,85.48
2019-05-25T02:14:06.509Z,85.61
2019-05-25T02:16:38.312Z,85.87
2019-05-25T02:19:10.170Z,85.86
2019-05-25T02:21:42.242Z,86.01
2019-05-25T02:24:14.713Z,86.43
2019-05-25T02:26:48.642Z,86.24
2019-05-25T02:29:20.006Z,86.12
2019-05-25T02:31:52.972Z,86.75
2019-05-25T02:34:25.519Z,86.67
2019-05-25T02:36:57.232Z,86.60
2019-05-25T02:39:31.283Z,86.83
2019-05-25T02:42:02.938Z,86.94
2019-05-25T02:44:36.693Z,86.77
2019-05-25T02:47:08.343Z,86.46
2019-05-25T02:49:40.763Z,86.70
2019-05-25T02:52:13.687Z,86.49
2019-05-25T02:54:45.523Z,86.53
2019-05-25T02:57:18.193Z,86.08
2019-05-25T02:59:50.356Z,85.64
2019-05-25T03:02:25.693Z,85.24
2019-05-25T03:04:57.551Z,84.66
2019-05-25T03:07:30.424Z,84.66
2019-05-25T03:10:02.187Z,84.42
2019-05-25T03:12:33.918Z,84.38
2019-05-25T03:15:09.287Z,83.96
2019-05-25T03:17:41.862Z,83.82
2019-05-25T03:20:13.875Z,83.59
2019-05-25T03:22:46.196Z,84.08
2019-05-25T03:25:19.730Z,83.18
2019-05-25T03:27:50.941Z,82.98
2019-05-25T03:30:36.609Z,82.54
2019-05-25T03:33:07.723Z,81.81
2019-05-25T03:35:39.941Z,81.04
2019-05-25T03:38:14.249Z,80.81
2019-05-25T03:40:45.798Z,80.18
2019-05-25T03:43:18.169Z,80.20
2019-05-25T03:45:49.769Z,80.08
2019-05-25T03:48:24.854Z,79.42
2019-05-25T03:50:58.250Z,79.37
2019-05-25T03:53:33.079Z,79.42
2019-05-25T03:56:06.681Z,78.97
2019-05-25T03:58:38.239Z,79.04
2019-05-25T04:01:10.939Z,78.02
2019-05-25T04:03:45.032Z,77.50
2019-05-25T04:06:19.017Z,76.56
2019-05-25T04:08:51.506Z,76.56
2019-05-25T04:11:25.754Z,76.77
2019-05-25T04:13:57.265Z,76.98
2019-05-25T04:16:29.242Z,78.07
2019-05-25T04:19:02.012Z,77.55
2019-05-25T04:21:34.796Z,78.07
2019-05-25T04:24:06.663Z,77.48
2019-05-25T04:26:38.921Z,78.02
2019-05-25T04:29:12.516Z,78.13
2019-05-25T04:31:45.478Z,78.06
2019-05-25T04:34:18.800Z,77.93
2019-05-25T04:36:50.222Z,78.11
2019-05-25T04:39:21.946Z,77.30
2019-05-25T04:41:54.678Z,76.74
2019-05-25T04:44:26.028Z,76.56
2019-05-25T04:46:59.904Z,75.90
2019-05-25T04:49:31.590Z,75.77
2019-05-25T04:52:04.791Z,75.49
2019-05-25T04:54:36.459Z,76.07
2019-05-25T04:57:08.140Z,76.65
2019-05-25T04:59:41.665Z,76.71
2019-05-25T05:02:14.072Z,75.06
2019-05-25T05:04:47.768Z,74.07
2019-05-25T05:07:20.131Z,73.12
2019-05-25T05:10:02.218Z,72.60
2019-05-25T05:12:28.151Z,72.49
2019-05-25T05:14:59.594Z,73.66
2019-05-25T05:17:34.470Z,73.42
2019-05-25T05:20:09.354Z,74.30
2019-05-25T05:22:40.624Z,74.49
2019-05-25T05:25:15.260Z,74.89
2019-05-25T05:27:46.669Z,74.27
2019-05-25T05:30:21.660Z,74.35
2019-05-25T05:32:53.521Z,74.59
2019-05-25T05:35:26.961Z,74.54
2019-05-25T05:38:02.096Z,75.31
2019-05-25T05:40:36.631Z,75.75
2019-05-25T05:43:11.857Z,75.66
2019-05-25T05:45:48.964Z,73.98
2019-05-25T05:48:23.764Z,73.49
2019-05-25T05:50:59.514Z,72.13
2019-05-25T05:53:36.419Z,70.76
2019-05-25T05:56:09.583Z,69.89
2019-05-25T05:58:41.946Z,68.38
2019-05-25T06:01:14.323Z,67.30
2019-05-25T06:03:46.440Z,66.49
2019-05-25T06:06:19.236Z,66.23
2019-05-25T06:08:51.217Z,66.30
2019-05-25T06:11:23.294Z,67.99
2019-05-25T06:13:55.157Z,68.95
2019-05-25T06:16:28.946Z,67.83
2019-05-25T06:19:01.564Z,67.66
2019-05-25T06:21:34.976Z,67.67
2019-05-25T06:24:09.137Z,66.76
2019-05-25T06:26:42.535Z,65.73
2019-05-25T06:29:14.392Z,66.34
2019-05-25T06:31:46.455Z,66.58
2019-05-25T06:34:19.032Z,65.39
2019-05-25T06:36:51.712Z,65.03
2019-05-25T06:39:24.555Z,64.87
2019-05-25T06:41:59.015Z,63.51
2019-05-25T06:44:32.618Z,64.01
2019-05-25T06:47:10.310Z,63.90
2019-05-25T06:49:43.189Z,63.45
2019-05-25T06:52:17.410Z,62.89
2019-05-25T06:54:49.610Z,63.09
2019-05-25T06:57:23.382Z,61.24
2019-05-25T06:59:55.134Z,58.87
2019-05-25T07:02:27.077Z,58.78
2019-05-25T07:05:00.490Z,58.05
2019-05-25T07:07:33.618Z,57.63
2019-05-25T07:10:09.387Z,57.71
2019-05-25T07:12:40.710Z,58.69
2019-05-25T07:15:14.573Z,59.62
2019-05-25T07:17:45.655Z,59.35
2019-05-25T07:20:17.294Z,59.29
2019-05-25T07:22:50.269Z,59.97
2019-05-25T07:25:22.442Z,58.02
2019-05-25T07:27:59.889Z,56.33
2019-05-25T07:30:27.896Z,57.08
2019-05-25T07:33:01.042Z,58.03
2019-05-25T07:35:35.031Z,56.86
2019-05-25T07:38:08.191Z,57.89
2019-05-25T07:40:41.469Z,55.80
2019-05-25T07:43:12.925Z,55.72
2019-05-25T07:45:45.799Z,55.84
2019-05-25T07:48:19.123Z,54.44
2019-05-25T07:50:50.891Z,53.46
2019-05-25T07:53:25.773Z,53.54
2019-05-25T07:55:57.392Z,52.33
2019-05-25T07:58:29.736Z,51.77
2019-05-25T08:01:01.627Z,49.81
2019-05-25T08:03:34.535Z,49.18
2019-05-25T08:06:09.072Z,48.66
2019-05-25T08:08:43.075Z,48.07
2019-05-25T08:11:15.868Z,48.78
2019-05-25T08:13:49.314Z,46.18
2019-05-25T08:16:21.220Z,45.29
2019-05-25T08:18:52.885Z,46.58
2019-05-25T08:21:24.540Z,48.46
2019-05-25T08:23:57.412Z,49.54
2019-05-25T08:26:32.534Z,50.74
2019-05-25T08:29:07.647Z,51.21
2019-05-25T08:31:41.435Z,52.07
2019-05-25T08:34:13.193Z,51.63
2019-05-25T08:36:47.041Z,52.10
2019-05-25T08:39:19.104Z,53.33
2019-05-25T08:41:50.676Z,53.41
2019-05-25T08:44:23.746Z,54.00
2019-05-25T08:46:55.751Z,54.61
2019-05-25T08:49:28.481Z,54.73
2019-05-25T08:51:59.835Z,54.53
2019-05-25T08:54:31.902Z,55.11
2019-05-25T08:57:03.543Z,54.92
2019-05-25T08:59:35.250Z,53.26
2019-05-25T09:02:07.061Z,52.49
2019-05-25T09:04:42.403Z,52.46
2019-05-25T09:07:14.418Z,50.10
2019-05-25T09:09:47.340Z,46.95
2019-05-25T09:12:19.193Z,45.80
2019-05-25T09:14:50.820Z,47.17
2019-05-25T09:17:23.030Z,49.23
2019-05-25T09:19:56.003Z,50.28
2019-05-25T09:22:28.188Z,51.73
2019-05-25T09:25:00.366Z,53.42
2019-05-25T09:27:32.206Z,52.90
2019-05-25T09:30:05.123Z,51.75
2019-05-25T09:32:37.155Z,51.74
2019-05-25T09:35:13.554Z,51.51
2019-05-25T09:37:45.808Z,51.65
2019-05-25T09:40:17.216Z,52.01
2019-05-25T09:42:49.416Z,50.30
2019-05-25T09:45:21.114Z,49.91
2019-05-25T09:47:55.259Z,50.59
2019-05-25T09:50:27.957Z,51.61
2019-05-25T09:52:59.767Z,50.67
2019-05-25T09:55:33.919Z,51.19
2019-05-25T09:58:05.885Z,52.85
2019-05-25T10:00:40.281Z,52.91
2019-05-25T10:03:11.066Z,52.72
2019-05-25T10:05:46.681Z,52.99
2019-05-25T10:08:19.780Z,54.73
2019-05-25T10:10:53.877Z,56.10
2019-05-25T10:13:26.394Z,57.39
2019-05-25T10:15:59.026Z,58.79
2019-05-25T10:18:30.385Z,60.60
2019-05-25T10:21:04.826Z,61.79
2019-05-25T10:23:36.355Z,62.86
2019-05-25T10:26:07.924Z,64.53
2019-05-25T10:28:41.947Z,64.44
2019-05-25T10:31:15.329Z,64.99
2019-05-25T10:33:48.389Z,68.72
2019-05-25T10:36:20.989Z,71.00
2019-05-25T10:38:54.873Z,72.96
2019-05-25T10:41:28.025Z,77.31
2019-05-25T10:43:59.615Z,80.84
2019-05-25T10:46:33.113Z,82.64
2019-05-25T10:49:05.278Z,81.56
2019-05-25T10:51:36.943Z,84.45
2019-05-25T10:54:08.687Z,83.42
2019-05-25T10:56:40.884Z,82.72
2019-05-25T10:59:12.150Z,80.60
2019-05-25T11:01:44.585Z,81.24
2019-05-25T11:04:18.635Z,77.08
2019-05-25T11:06:51.492Z,75.55
2019-05-25T11:09:25.588Z,72.21
2019-05-25T11:11:59.181Z,72.30
2019-05-25T11:14:30.943Z,68.97
2019-05-25T11:17:02.599Z,64.81
2019-05-25T11:19:35.786Z,64.36
2019-05-25T11:22:17.708Z,61.74
2019-05-25T11:24:50.762Z,60.74
2019-05-25T11:27:23.026Z,58.51
2019-05-25T11:30:08.059Z,57.30
2019-05-25T11:32:30.026Z,57.61
2019-05-25T11:35:01.918Z,56.72
2019-05-25T11:37:36.400Z,52.73
2019-05-25T11:40:09.368Z,54.89
2019-05-25T11:42:42.736Z,49.01
2019-05-25T11:45:14.827Z,48.92
2019-05-25T11:47:46.095Z,51.46
2019-05-25T11:50:18.351Z,53.43
2019-05-25T11:52:50.239Z,56.40
2019-05-25T11:55:22.178Z,57.41
2019-05-25T11:57:56.092Z,58.96
2019-05-25T12:00:28.205Z,59.63
2019-05-25T12:02:59.571Z,58.96
2019-05-25T12:05:33.402Z,58.82
2019-05-25T12:08:05.139Z,60.02
2019-05-25T12:10:37.526Z,57.51
2019-05-25T12:13:11.232Z,60.48
2019-05-25T12:15:44.426Z,62.05
2019-05-25T12:18:16.282Z,63.26
2019-05-25T12:20:48.245Z,63.16
2019-05-25T12:23:21.224Z,61.91
2019-05-25T12:25:53.807Z,63.44
2019-05-25T12:28:26.785Z,63.44
2019-05-25T12:31:00.305Z,63.60
2019-05-25T12:33:33.041Z,64.48
2019-05-25T12:36:07.665Z,63.32
2019-05-25T12:38:40.521Z,62.51
2019-05-25T12:41:12.229Z,62.87
2019-05-25T12:43:44.494Z,61.51
2019-05-25T12:46:15.989Z,61.15
2019-05-25T12:48:48.525Z,58.18
2019-05-25T12:51:20.585Z,58.25
2019-05-25T12:53:52.343Z,56.40
2019-05-25T12:56:26.162Z,53.69
2019-05-25T12:58:59.736Z,48.99
2019-05-25T13:01:32.319Z,46.61
2019-05-25T13:04:03.571Z,43.66
2019-05-25T13:06:38.743Z,42.36
2019-05-25T13:09:10.763Z,41.35
2019-05-25T13:11:45.393Z,41.81
2019-05-25T13:14:17.990Z,41.25
2019-05-25T13:16:50.539Z,41.03
2019-05-25T13:19:22.805Z,38.16
2019-05-25T13:21:55.339Z,40.02
2019-05-25T13:24:28.397Z,39.68
2019-05-25T13:26:59.516Z,36.57
2019-05-25T13:29:32.496Z,36.49
2019-05-25T13:32:05.808Z,34.87
2019-05-25T13:34:37.803Z,32.73
2019-05-25T13:37:09.963Z,30.71
2019-05-25T13:39:42.094Z,30.02
2019-05-25T13:42:13.187Z,30.85
2019-05-25T13:44:44.778Z,30.07
2019-05-25T13:47:16.330Z,29.39
2019-05-25T13:49:49.313Z,28.89
2019-05-25T13:52:20.889Z,28.16
2019-05-25T13:54:52.954Z,27.18
2019-05-25T13:57:24.602Z,28.29
2019-05-25T13:59:56.042Z,28.38
2019-05-25T14:02:27.888Z,28.53
2019-05-25T14:05:01.901Z,27.52
2019-05-25T14:07:36.219Z,28.15
2019-05-25T14:10:11.865Z,28.25
2019-05-25T14:12:44.141Z,26.28
2019-05-25T14:15:16.122Z,26.67
2019-05-25T14:17:48.616Z,25.72
2019-05-25T14:20:20.226Z,25.90
2019-05-25T14:22:51.687Z,27.36
2019-05-25T14:25:23.142Z,27.49
2019-05-25T14:27:56.629Z,25.09
2019-05-25T14:30:30.226Z,25.62
2019-05-25T14:33:04.435Z,26.76
2019-05-25T14:35:38.271Z,26.86
2019-05-25T14:38:09.686Z,26.44
2019-05-25T14:40:42.876Z,25.77
2019-05-25T14:43:15.470Z,27.55
2019-05-25T14:45:47.117Z,28.50
2019-05-25T14:48:21.123Z,29.63
2019-05-25T14:50:52.624Z,30.57
2019-05-25T14:53:26.046Z,31.59
2019-05-25T14:56:00.379Z,31.62
2019-05-25T14:58:31.831Z,31.41
2019-05-25T15:01:06.169Z,30.33
2019-05-25T15:03:37.392Z,30.77
2019-05-25T15:06:09.730Z,30.16
2019-05-25T15:08:41.736Z,31.58
2019-05-25T15:11:14.400Z,32.58
2019-05-25T15:13:46.303Z,35.34
2019-05-25T15:16:21.190Z,35.70
2019-05-25T15:18:52.588Z,35.63
2019-05-25T15:21:25.940Z,36.55
2019-05-25T15:23:58.408Z,36.26
2019-05-25T15:26:31.906Z,36.47
2019-05-25T15:29:03.658Z,38.00
2019-05-25T15:31:36.545Z,39.66
2019-05-25T15:34:08.706Z,40.63
2019-05-25T15:36:42.000Z,42.20
2019-05-25T15:39:13.736Z,44.55
2019-05-25T15:41:48.792Z,47.57
2019-05-25T15:44:20.446Z,49.96
2019-05-25T15:46:54.797Z,51.75
2019-05-25T15:49:33.454Z,53.21
2019-05-25T15:52:03.600Z,54.12
2019-05-25T15:54:37.728Z,53.76
2019-05-25T15:57:12.749Z,53.53
2019-05-25T15:59:44.214Z,53.63
2019-05-25T16:02:15.625Z,54.05
2019-05-25T16:04:47.197Z,54.23
2019-05-25T16:07:20.909Z,55.69
2019-05-25T16:09:53.270Z,56.47
2019-05-25T16:12:24.316Z,56.79
2019-05-25T16:14:57.593Z,57.68
2019-05-25T16:17:31.207Z,59.25
2019-05-25T16:20:03.371Z,59.12
2019-05-25T16:22:40.156Z,59.10
2019-05-25T16:25:12.513Z,58.30
2019-05-25T16:27:45.607Z,57.53
2019-05-25T16:30:17.831Z,56.89
2019-05-25T16:35:27.964Z,55.09
2019-05-25T16:38:02.150Z,54.36
2019-05-25T16:40:35.956Z,52.94
2019-05-25T16:43:09.686Z,53.91
2019-05-25T16:45:41.184Z,53.62
2019-05-25T16:48:13.796Z,55.29
2019-05-25T16:50:46.108Z,56.67
2019-05-25T16:53:19.861Z,58.46
2019-05-25T16:55:54.586Z,59.49
2019-05-25T16:58:27.779Z,61.34
2019-05-25T17:01:00.165Z,62.40
2019-05-25T17:03:31.426Z,62.80
2019-05-25T17:06:04.775Z,63.04
2019-05-25T17:08:39.307Z,63.85
2019-05-25T17:11:12.426Z,63.47
2019-05-25T17:13:46.413Z,64.01
2019-05-25T17:16:19.123Z,64.46
2019-05-25T17:18:52.636Z,64.40
2019-05-25T17:21:24.343Z,64.32
2019-05-25T17:23:56.809Z,64.11
2019-05-25T17:26:31.023Z,65.31
2019-05-25T17:29:05.137Z,65.24
2019-05-25T17:31:40.378Z,65.56
2019-05-25T17:34:11.925Z,66.06
2019-05-25T17:36:43.581Z,66.62
2019-05-25T17:39:14.824Z,66.86
2019-05-25T17:41:48.836Z,67.39
2019-05-25T17:44:21.207Z,68.27
2019-05-25T17:46:54.095Z,68.34
2019-05-25T17:49:27.584Z,68.99
2019-05-25T17:51:59.035Z,69.63
2019-05-25T17:54:31.610Z,69.56
2019-05-25T17:57:03.926Z,69.84
2019-05-25T17:59:36.760Z,70.13
2019-05-25T18:02:09.700Z,70.72
2019-05-25T18:04:42.425Z,71.57
2019-05-25T18:07:14.076Z,71.81
2019-05-25T18:09:45.793Z,72.06
2019-05-25T18:12:20.457Z,72.83
2019-05-25T18:14:53.037Z,73.30
2019-05-25T18:17:24.895Z,73.29
2019-05-25T18:19:56.858Z,73.02
2019-05-25T18:22:31.017Z,73.43
2019-05-25T18:25:07.349Z,73.44
2019-05-25T18:27:38.722Z,73.86
2019-05-25T18:30:12.678Z,74.46
2019-05-25T18:32:45.259Z,74.52
2019-05-25T18:35:17.190Z,74.46
2019-05-25T18:37:51.117Z,75.22
2019-05-25T18:40:23.049Z,75.33
2019-05-25T18:42:54.646Z,75.43
2019-05-25T18:45:31.727Z,75.63
2019-05-25T18:48:04.813Z,75.47
2019-05-25T18:50:36.462Z,75.99
2019-05-25T18:53:11.452Z,77.22
2019-05-25T18:55:44.073Z,77.25
2019-05-25T18:58:17.844Z,77.83
2019-05-25T19:00:51.277Z,77.22
2019-05-25T19:03:24.841Z,77.12
2019-05-25T19:05:56.369Z,77.38
2019-05-25T19:08:27.854Z,78.25
2019-05-25T19:11:02.193Z,78.61
2019-05-25T19:13:36.912Z,79.14
2019-05-25T19:16:08.660Z,78.91
2019-05-25T19:18:42.576Z,78.86
2019-05-25T19:21:15.045Z,78.82
2019-05-25T19:23:50.699Z,78.95
2019-05-25T19:26:22.671Z,79.38
2019-05-25T19:28:58.514Z,79.39
2019-05-25T19:31:30.046Z,78.83
2019-05-25T19:34:02.854Z,78.86
2019-05-25T19:36:35.424Z,78.62
2019-05-25T19:39:08.718Z,77.85
2019-05-25T19:41:40.431Z,78.21
2019-05-25T19:44:12.131Z,78.34
2019-05-25T19:46:46.411Z,78.28
2019-05-25T19:49:18.394Z,78.35
2019-05-25T19:51:50.899Z,78.01
2019-05-25T19:54:24.791Z,77.65
2019-05-25T19:56:56.422Z,77.33
2019-05-25T19:59:28.141Z,77.21
2019-05-25T20:02:01.496Z,76.77
2019-05-25T20:04:33.131Z,76.37
2019-05-25T20:07:06.267Z,75.50
2019-05-25T20:09:41.468Z,75.38
2019-05-25T20:12:13.024Z,75.18
2019-05-25T20:14:47.028Z,75.30
2019-05-25T20:17:20.528Z,75.72
2019-05-25T20:19:52.692Z,75.88
2019-05-25T20:22:24.569Z,76.32
2019-05-25T20:24:58.157Z,76.58
2019-05-25T20:27:33.600Z,76.54
2019-05-25T20:30:09.488Z,76.82
2019-05-25T20:32:41.211Z,77.36
2019-05-25T20:35:14.040Z,77.61
2019-05-25T20:37:45.577Z,77.80
2019-05-25T20:40:18.522Z,78.06
2019-05-25T20:42:51.301Z,78.29
2019-05-25T20:45:24.551Z,78.18
2019-05-25T20:47:56.132Z,78.49
2019-05-25T20:50:29.337Z,78.92
2019-05-25T20:53:03.654Z,78.90
2019-05-25T20:55:36.169Z,79.16
2019-05-25T20:58:09.439Z,79.07
2019-05-25T21:00:42.766Z,78.96
2019-05-25T21:03:14.878Z,79.22
2019-05-25T21:05:50.609Z,79.47
2019-05-25T21:08:21.973Z,79.87
2019-05-25T21:10:53.756Z,79.93
2019-05-25T21:13:27.227Z,80.07
2019-05-25T21:15:59.085Z,80.56
2019-05-25T21:18:30.741Z,80.79
2019-05-25T21:21:02.209Z,81.16
2019-05-25T21:23:35.714Z,80.97
2019-05-25T21:26:08.469Z,80.61
2019-05-25T21:28:40.027Z,80.76
2019-05-25T21:31:13.932Z,81.24
2019-05-25T21:33:46.501Z,81.38
2019-05-25T21:36:17.784Z,81.69
2019-05-25T21:38:50.731Z,81.77
2019-05-25T21:41:23.819Z,81.88
2019-05-25T21:43:55.883Z,81.14
2019-05-25T21:46:27.537Z,80.97
2019-05-25T21:49:00.422Z,81.11
2019-05-25T21:51:34.429Z,81.02
2019-05-25T21:54:07.825Z,80.05
2019-05-25T21:56:43.288Z,80.06
2019-05-25T21:59:16.764Z,79.73
2019-05-25T22:01:48.368Z,80.77
2019-05-25T22:04:20.584Z,80.88
2019-05-25T22:06:52.559Z,80.99
2019-05-25T22:09:26.659Z,81.42
2019-05-25T22:11:59.075Z,81.75
2019-05-25T22:14:31.091Z,81.74
2019-05-25T22:17:04.537Z,82.16
2019-05-25T22:19:37.470Z,81.80
2019-05-25T22:22:10.679Z,81.92
2019-05-25T22:24:44.960Z,82.18
2019-05-25T22:27:20.219Z,82.15
2019-05-25T22:29:53.404Z,82.59
2019-05-25T22:32:26.081Z,82.85
2019-05-25T22:34:59.800Z,83.05
2019-05-25T22:37:32.263Z,83.05
2019-05-25T22:40:08.217Z,83.36
2019-05-25T22:42:40.368Z,83.16
2019-05-25T22:45:12.344Z,83.72
2019-05-25T22:47:43.717Z,83.95
2019-05-25T22:50:18.207Z,84.13
2019-05-25T22:52:50.672Z,84.40
2019-05-25T22:55:25.677Z,84.53
2019-05-25T22:57:58.163Z,84.86
2019-05-25T23:00:32.196Z,84.90
2019-05-25T23:03:06.547Z,85.05
2019-05-25T23:05:39.306Z,84.98
2019-05-25T23:08:13.505Z,85.25
2019-05-25T23:10:45.982Z,85.17
2019-05-25T23:13:18.442Z,84.97
2019-05-25T23:15:50.216Z,84.71
2019-05-25T23:18:23.266Z,85.12
2019-05-25T23:20:56.325Z,85.26
2019-05-25T23:23:28.047Z,85.17
2019-05-25T23:26:00.444Z,85.43
2019-05-25T23:28:32.492Z,85.74
2019-05-25T23:31:05.158Z,85.42
2019-05-25T23:33:37.222Z,85.91
2019-05-25T23:36:08.494Z,86.12
2019-05-25T23:38:42.358Z,86.58
2019-05-25T23:41:14.023Z,86.32
2019-05-25T23:43:45.786Z,86.60
2019-05-25T23:46:18.249Z,86.55
2019-05-25T23:48:51.989Z,86.62
2019-05-25T23:51:23.504Z,86.87
2019-05-25T23:53:56.809Z,87.11
2019-05-25T23:56:28.566Z,86.16
2019-05-25T23:59:00.055Z,86.98
